Etown, Pennsylvania
Current Conditions -  °F | °C
As of 4:56 AM on Thursday 18 Dec 2014 (Local Time) from KMDT Reporting Station
Scattered Clouds Scattered Clouds  
Wind Chill: 24°   Ceiling: Unl
Heat Index: 34°   Visibility: 10mi
Dew Point: 16°   Wind: 16mph
Humidity: 48%   Direction: 320°NW
Pressure: 30.06"   Gusts: 25mph
Location:  40.1674°N, 76.6045°W
Report Text: KMDT 180956Z 32014G22KT 10SM SCT045 01/M09 A3006 RMK AO2 PK WND 32031/0909 SLP181 T00111089
Loading
Personal Weather Stations






























Interactive Weather Map New forecast layout! Learn more

10-Day Weather Forecast

Advertisements
Track Severe Weather on mobile